Latest Weather Observations for Jabiru

IDD60801

Issued at 2:31 pm CST Sunday 24 May 2015 (issued every 30 minutes, with the page automatically refreshed every 10 minutes)

About weather observations | Map of weather stations | Latest weather observations for NT | Other Formats
Station Details ID: 014198 Name: JABIRU AIRPORT Lat: -12.66 Lon: 132.89 Height: 26.5 m
Data from the previous 72 hours. | See also: Recent months at Jabiru
Date/Time
CST
Temp
°C
App
Temp
°C
Dew
Point
Rel
Hum
%
Delta-T
°C
Wind Press
QNH
hPa
Press
MSL
hPa
Rain
since 9 am
mm
Dir
 
Spd
km/h
Gust
km/h
Spd
kts
Gust
kts
24/02:30pm 32.8 29.6 6.9 20 14.1 SSE 13 20 7 11 1012.6 1012.4 0.0
24/02:00pm 32.9 30.5 7.0 20 14.2 E 9 17 5 9 1012.8 1012.6 0.0
24/01:30pm 32.3 29.6 7.2 21 13.7 SE 11 19 6 10 1013.1 1012.9 0.0
24/01:00pm 31.7 28.5 6.7 21 13.5 SE 13 24 7 13 1013.6 1013.4 0.0
24/12:30pm 31.3 28.8 8.3 24 12.7 ESE 11 20 6 11 1014.1 1013.9 0.0
24/12:00pm 30.7 27.9 8.4 25 12.3 ESE 13 20 7 11 1014.7 1014.5 0.0
24/11:30am 29.5 26.4 7.4 25 11.9 ESE 13 24 7 13 1015.2 1015.0 0.0
24/11:00am 29.6 26.4 8.6 27 11.6 E 15 22 8 12 1015.6 1015.4 0.0
24/10:30am 28.4 25.1 8.1 28 11.0 ESE 15 24 8 13 1015.8 1015.6 0.0
24/10:00am 27.6 23.9 8.0 29 10.6 ESE 17 26 9 14 1015.9 1015.7 0.0
24/09:30am 26.4 23.1 7.9 31 9.9 ESE 15 30 8 16 1015.9 1015.7 0.0
24/09:00am 25.3 22.3 9.2 36 8.8 ESE 15 20 8 11 1015.9 1015.7 0.0
24/08:30am 23.9 21.5 9.9 41 7.7 ESE 13 20 7 11 1015.6 1015.4 0.0
24/08:00am 22.8 20.3 10.9 47 6.6 E 15 20 8 11 1015.4 1015.2 0.0
24/07:30am 21.1 19.3 10.9 52 5.6 E 11 13 6 7 1015.3 1015.1 0.0
24/07:00am 20.1 19.0 10.5 54 5.2 ESE 7 9 4 5 1015.0 1014.8 0.0
24/06:30am 20.2 18.8 10.9 55 5.1 ESE 9 11 5 6 1014.9 1014.7 0.0
24/06:00am 19.6 19.3 11.6 60 4.4 ENE 4 9 2 5 1014.7 1014.5 0.0
24/05:30am 20.0 19.3 11.5 58 4.7 ESE 6 9 3 5 1014.6 1014.4 0.0
24/05:00am 20.3 20.2 12.0 59 4.6 WNW 4 7 2 4 1014.5 1014.3 0.0
24/04:30am 21.2 20.5 12.1 56 5.1 ESE 7 13 4 7 1014.3 1014.1 0.0
24/04:00am 21.1 20.1 12.3 57 5.0 E 9 15 5 8 1014.2 1014.0 0.0
24/03:30am 21.8 20.1 12.4 55 5.3 ESE 13 17 7 9 1014.2 1014.0 0.0
24/03:00am 22.2 20.4 12.2 53 5.7 E 13 19 7 10 1014.3 1014.1 0.0
24/02:30am 23.1 21.6 11.8 49 6.4 ESE 11 17 6 9 1014.6 1014.4 0.0
24/02:00am 23.6 21.6 11.6 47 6.8 ESE 13 19 7 10 1014.9 1014.7 0.0
24/01:30am 23.8 21.7 11.2 45 7.1 ESE 13 17 7 9 1015.1 1014.9 0.0
24/01:00am 23.9 21.6 10.6 43 7.4 ESE 13 19 7 10 1015.2 1015.0 0.0
24/12:30am 23.8 21.4 10.1 42 7.5 ESE 13 17 7 9 1015.3 1015.1 0.0
24/12:00am 23.9 22.1 10.9 44 7.2 ESE 11 17 6 9 1015.4 1015.2 0.0
 
Date/Time
CST
Temp
°C
App
Temp
°C
Dew
Point
Rel
Hum
%
Delta-T
°C
Wind Press
QNH
hPa
Press
MSL
hPa
Rain
since 9 am
mm
Dir
 
Spd
km/h
Gust
km/h
Spd
kts
Gust
kts
23/11:30pm 24.1 22.6 10.7 43 7.4 ESE 9 13 5 7 1015.2 1015.0 0.0
23/11:00pm 24.0 22.2 11.0 44 7.3 ESE 11 15 6 8 1015.1 1014.9 0.0
23/10:30pm 25.1 23.3 10.9 41 8.0 E 11 15 6 8 1015.0 1014.8 0.0
23/10:00pm 25.8 24.0 10.8 39 8.4 ESE 11 15 6 8 1014.9 1014.7 0.0
23/09:30pm 26.8 25.0 10.9 37 9.0 ESE 11 17 6 9 1014.8 1014.6 0.0
23/09:00pm 27.3 25.5 10.9 36 9.3 ESE 11 19 6 10 1014.7 1014.5 0.0
23/08:30pm 27.7 25.6 11.3 36 9.4 SE 13 19 7 10 1014.4 1014.2 0.0
23/08:00pm 28.2 26.6 11.7 36 9.5 SE 11 17 6 9 1014.1 1013.9 0.0
23/07:30pm 28.7 27.1 11.7 35 9.8 SE 11 19 6 10 1013.7 1013.5 0.0
23/07:00pm 29.5 27.3 12.0 34 10.2 SE 15 22 8 12 1013.4 1013.2 0.0
23/06:30pm 29.8 28.8 12.3 34 10.3 SE 9 15 5 8 1013.1 1012.9 0.0
23/06:00pm 30.7 29.8 12.6 33 10.7 SE 9 19 5 10 1012.7 1012.5 0.0
23/05:30pm 31.6 30.6 12.4 31 11.4 ESE 9 13 5 7 1012.3 1012.1 0.0
23/05:00pm 32.7 31.7 12.3 28 12.1 SSE 9 15 5 8 1012.1 1011.9 0.0
23/04:30pm 32.8 31.5 12.4 29 12.1 ESE 11 17 6 9 1012.0 1011.8 0.0
23/04:00pm 32.9 31.1 12.0 28 12.4 ESE 13 22 7 12 1012.0 1011.8 0.0
23/03:30pm 32.5 30.2 11.6 28 12.3 E 15 24 8 13 1012.2 1012.0 0.0
23/03:00pm 32.7 30.8 11.8 28 12.3 SE 13 20 7 11 1012.4 1012.2 0.0
23/02:30pm 32.6 30.5 12.3 29 12.0 ESE 15 20 8 11 1012.8 1012.6 0.0
23/02:00pm 32.7 31.0 12.3 28 12.1 ESE 13 20 7 11 1013.2 1013.0 0.0
23/01:30pm 31.8 29.6 12.1 30 11.6 ESE 15 26 8 14 1013.8 1013.6 0.0
23/01:00pm 31.7 28.9 12.5 31 11.4 SE 19 26 10 14 1014.3 1014.1 0.0
23/12:30pm 31.0 28.0 12.4 32 11.0 ESE 20 30 11 16 1014.8 1014.6 0.0
23/12:00pm 30.8 28.5 13.1 34 10.5 ESE 17 30 9 16 1015.3 1015.1 0.0
23/11:30am 30.0 27.9 13.7 37 9.8 ESE 17 24 9 13 1015.8 1015.6 0.0
23/11:00am 29.4 26.9 13.6 38 9.4 ESE 19 30 10 16 1016.2 1016.0 0.0
23/10:30am 28.2 25.4 13.3 40 8.8 ESE 20 28 11 15 1016.7 1016.5 0.0
23/10:00am 27.6 24.9 13.5 41 8.4 ESE 20 33 11 18 1016.8 1016.6 0.0
23/09:30am 26.7 23.2 13.4 43 7.8 ESE 24 35 13 19 1016.9 1016.7 0.0
23/09:00am 26.0 22.5 13.5 46 7.3 ESE 24 39 13 21 1016.8 1016.6 0.0
23/08:30am 25.3 22.5 13.2 47 7.1 ESE 20 33 11 18 1016.7 1016.5 0.0
23/08:00am 24.3 23.3 14.7 55 5.7 ESE 13 22 7 12 1016.5 1016.3 0.0
23/07:30am 23.5 22.2 14.8 58 5.2 ESE 15 20 8 11 1016.4 1016.2 0.0
23/07:00am 22.5 21.0 14.1 59 4.9 ESE 15 20 8 11 1016.2 1016.0 0.0
23/06:30am 22.5 21.6 13.6 57 5.2 ESE 11 19 6 10 1015.9 1015.7 0.0
23/06:00am 23.0 21.5 13.2 54 5.7 ESE 13 20 7 11 1015.7 1015.5 0.0
23/05:30am 23.2 22.1 13.1 53 5.8 ESE 11 17 6 9 1015.6 1015.4 0.0
23/05:00am 23.5 22.5 13.4 53 5.9 ESE 11 17 6 9 1015.4 1015.2 0.0
23/04:30am 23.5 22.6 13.7 54 5.7 ESE 11 17 6 9 1015.4 1015.2 0.0
23/04:00am 24.0 23.1 13.8 53 6.0 ESE 11 19 6 10 1015.3 1015.1 0.0
23/03:30am 24.1 23.3 13.9 53 6.0 ESE 11 17 6 9 1015.3 1015.1 0.0
23/03:00am 24.0 23.5 13.8 53 6.0 ESE 9 13 5 7 1015.3 1015.1 0.0
23/02:30am 24.3 23.3 13.5 51 6.3 ESE 11 15 6 8 1015.4 1015.2 0.0
23/02:00am 25.2 24.2 13.4 48 6.9 ESE 11 15 6 8 1015.6 1015.4 0.0
23/01:30am 25.2 24.2 13.4 48 6.9 ESE 11 17 6 9 1015.8 1015.6 0.0
23/01:00am 25.5 24.8 14.3 50 6.7 ESE 11 19 6 10 1015.8 1015.6 0.0
23/12:30am 25.3 25.3 15.3 54 6.0 ESE 9 13 5 7 1016.0 1015.8 0.0
23/12:00am 25.9 26.2 15.9 54 6.1 ESE 9 13 5 7 1016.2 1016.0 0.0
 
Date/Time
CST
Temp
°C
App
Temp
°C
Dew
Point
Rel
Hum
%
Delta-T
°C
Wind Press
QNH
hPa
Press
MSL
hPa
Rain
since 9 am
mm
Dir
 
Spd
km/h
Gust
km/h
Spd
kts
Gust
kts
22/11:30pm 26.8 25.9 15.8 51 6.7 E 15 22 8 12 1016.3 1016.1 0.0
22/11:00pm 26.8 26.6 15.8 51 6.7 ESE 11 17 6 9 1016.4 1016.2 0.0
22/10:30pm 26.3 26.4 15.4 51 6.6 ESE 9 15 5 8 1016.3 1016.1 0.0
22/10:00pm 25.6 26.2 15.9 55 5.9 SE 7 13 4 7 1016.1 1015.9 0.0
22/09:30pm 25.3 25.9 15.9 56 5.7 ESE 7 11 4 6 1016.0 1015.8 0.0
22/09:00pm 27.7 27.6 15.0 45 7.7 SE 9 13 5 7 1015.7 1015.5 0.0
22/08:30pm 27.3 27.7 15.3 48 7.3 SE 7 9 4 5 1015.5 1015.3 0.0
22/08:00pm 27.6 28.1 15.6 48 7.3 ESE 7 9 4 5 1015.0 1014.8 0.0
22/07:30pm 28.5 28.8 15.1 44 8.2 ESE 7 11 4 6 1014.6 1014.4 0.0
22/07:00pm 29.3 29.6 15.1 42 8.7 ESE 7 11 4 6 1014.2 1014.0 0.0
22/06:30pm 30.4 30.4 15.3 40 9.3 ESE 9 13 5 7 1014.0 1013.8 0.0
22/06:00pm 30.8 30.9 15.6 39 9.4 ESE 9 13 5 7 1013.7 1013.5 0.0
22/05:30pm 31.5 31.8 15.9 39 9.7 E 9 13 5 7 1013.3 1013.1 0.0
22/05:00pm 31.8 31.4 15.3 37 10.2 E 11 19 6 10 1012.9 1012.7 0.0
22/04:30pm 32.9 32.2 15.4 35 10.9 E 13 17 7 9 1012.7 1012.5 0.0
22/04:00pm 33.0 32.3 15.5 35 10.9 E 13 19 7 10 1012.6 1012.4 0.0
22/03:30pm 33.0 31.4 15.0 33 11.1 E 17 22 9 12 1012.7 1012.5 0.0
22/03:00pm 33.6 31.7 15.1 33 11.5 E 19 30 10 16 1012.8 1012.6 0.0
22/02:30pm 33.1 31.9 16.0 35 10.7 ESE 17 32 9 17 1013.0 1012.8 0.0
22/02:00pm 33.4 32.1 15.8 34 11.0 E 17 30 9 16 1013.3 1013.1 0.0
22/01:30pm 32.5 30.5 15.5 36 10.6 E 20 35 11 19 1013.7 1013.5 0.0
22/01:00pm 33.1 31.5 16.5 37 10.5 ENE 20 32 11 17 1014.5 1014.3 0.0
22/12:30pm 33.0 32.1 16.8 38 10.3 E 17 30 9 16 1015.0 1014.8 0.0
22/12:00pm 31.7 28.8 16.0 38 9.8 E 26 35 14 19 1015.2 1015.0 0.0
22/11:30am 31.3 28.9 16.5 41 9.3 E 24 35 13 19 1015.4 1015.2 0.0
22/11:00am 31.8 29.9 17.7 43 9.0 E 24 37 13 20 1015.9 1015.7 0.0
22/10:30am 31.1 31.3 20.1 52 7.3 E 19 28 10 15 1016.1 1015.9 0.0
22/10:00am 30.2 30.4 20.2 55 6.6 E 19 28 10 15 1016.5 1016.3 0.0
22/09:30am 28.6 30.4 21.1 64 5.0 E 13 19 7 10 1016.7 1016.5 0.0
22/09:00am 27.5 29.9 21.5 70 4.0 E 11 17 6 9 1016.8 1016.6 0.0
22/08:30am 26.4 29.3 21.8 76 3.1 E 9 15 5 8 1016.7 1016.5 0.0
22/08:00am 23.8 28.0 20.9 84 1.9 CALM 0 0 0 0 1016.5 1016.3 0.0
22/07:30am 22.7 26.7 20.6 88 1.4 CALM 0 0 0 0 1016.2 1016.0 0.0
22/07:00am 22.0 25.1 20.3 90 1.1 ESE 4 6 2 3 1015.8 1015.6 0.0
22/06:30am 22.0 24.8 20.5 91 1.0 ENE 6 7 3 4 1015.7 1015.5 0.0
22/06:00am 21.9 24.6 20.2 90 1.1 SSE 6 7 3 4 1015.5 1015.3 0.0
22/05:30am 22.6 25.5 21.1 91 1.0 SSW 7 9 4 5 1015.6 1015.4 0.0
22/05:00am 22.6 26.8 20.9 90 1.1 CALM 0 0 0 0 1015.6 1015.4 0.0
22/04:30am 22.9 27.2 21.2 90 1.1 CALM 0 0 0 0 1015.5 1015.3 0.0
22/04:00am 23.1 27.3 21.0 88 1.4 CALM 0 0 0 0 1015.4 1015.2 0.0
22/03:30am 23.3 27.6 21.2 88 1.4 CALM 0 0 0 0 1015.2 1015.0 0.0
22/03:00am 23.2 27.4 20.9 87 1.5 CALM 0 0 0 0 1015.2 1015.0 0.0
22/02:30am 24.1 27.7 21.2 84 1.9 NE 4 7 2 4 1015.3 1015.1 0.0
22/02:00am 23.9 28.0 21.6 87 1.5 NE 2 6 1 3 1015.5 1015.3 0.0
22/01:30am 23.8 26.9 21.1 85 1.8 NE 6 7 3 4 1015.6 1015.4 0.0
22/01:00am 24.4 28.9 21.5 84 1.9 CALM 0 0 0 0 1015.7 1015.5 0.0
22/12:30am 24.7 28.1 21.6 83 2.1 NNE 6 7 3 4 1015.9 1015.7 0.0
22/12:00am 25.1 28.5 21.6 81 2.3 N 6 9 3 5 1015.8 1015.6 0.0
 
Date/Time
CST
Temp
°C
App
Temp
°C
Dew
Point
Rel
Hum
%
Delta-T
°C
Wind Press
QNH
hPa
Press
MSL
hPa
Rain
since 9 am
mm
Dir
 
Spd
km/h
Gust
km/h
Spd
kts
Gust
kts
21/11:30pm 25.4 28.5 21.5 79 2.6 NNW 7 9 4 5 1016.0 1015.8 0.0
21/11:00pm 25.7 28.8 21.4 77 2.9 N 7 11 4 6 1015.9 1015.7 0.0
21/10:30pm 26.3 29.3 21.3 74 3.3 NNW 7 9 4 5 1015.8 1015.6 0.0
21/10:00pm 26.8 29.8 21.3 72 3.7 NNW 7 13 4 7 1015.4 1015.2 0.0
21/09:30pm 27.3 30.3 21.3 69 4.0 NW 7 11 4 6 1015.2 1015.0 0.0
21/09:00pm 27.6 29.6 20.7 66 4.6 NNW 11 15 6 8 1014.9 1014.7 0.0
21/08:30pm 28.2 30.3 20.2 62 5.3 NW 9 13 5 7 1014.6 1014.4 0.0
21/08:00pm 28.7 30.7 19.9 59 5.8 NW 9 15 5 8 1014.1 1013.9 0.0
21/07:30pm 29.1 30.5 16.3 46 8.0 ESE 4 7 2 4 1013.7 1013.5 0.0
21/07:00pm 29.4 30.4 16.9 47 7.9 E 7 9 4 5 1013.4 1013.2 0.0
21/06:30pm 30.6 31.5 16.2 41 9.0 E 6 9 3 5 1013.1 1012.9 0.0
21/06:00pm 31.9 32.6 16.2 38 9.9 E 7 9 4 5 1012.8 1012.6 0.0
21/05:30pm 32.8 32.8 15.3 34 10.9 E 9 11 5 6 1012.6 1012.4 0.0
21/05:00pm 34.1 32.9 15.1 32 11.8 E 15 20 8 11 1012.3 1012.1 0.0
21/04:30pm 34.2 33.4 15.1 31 11.9 E 13 17 7 9 1012.1 1011.9 0.0
21/04:00pm 34.5 33.6 14.9 31 12.2 E 13 19 7 10 1012.0 1011.8 0.0
21/03:30pm 34.8 33.1 14.7 30 12.5 ENE 17 26 9 14 1012.1 1011.9 0.0
21/03:00pm 35.1 33.8 14.9 29 12.6 ENE 15 22 8 12 1012.4 1012.2 0.0

Other Formats:

Comma delimited format used in spreadsheet applications
http://www.bom.gov.au/fwo/IDD60801/IDD60801.94137.axf

JavaScript Object Notation format (JSON) in row-major order
http://www.bom.gov.au/fwo/IDD60801/IDD60801.94137.json